createdAt,value
2019-04-06T00:00:00.450Z,44
2019-04-06T00:00:03.923Z,45
2019-04-06T00:00:06.227Z,44
2019-04-06T00:00:10.683Z,45
2019-04-06T00:00:13.032Z,46
2019-04-06T00:00:15.402Z,45
2019-04-06T00:00:16.601Z,46
2019-04-06T00:00:18.881Z,45
2019-04-06T00:00:19.974Z,46
2019-04-06T00:00:23.255Z,44
2019-04-06T00:00:25.584Z,45
2019-04-06T00:00:28.041Z,44
2019-04-06T00:00:33.803Z,45
2019-04-06T00:00:36.096Z,44
2019-04-06T00:00:38.363Z,45
2019-04-06T00:00:40.864Z,44
2019-04-06T00:00:46.667Z,43
2019-04-06T00:00:47.821Z,42
2019-04-06T00:00:56.164Z,41
2019-04-06T00:00:58.495Z,42
2019-04-06T00:01:01.942Z,43
2019-04-06T00:01:04.196Z,42
2019-04-06T00:01:06.491Z,43
2019-04-06T00:01:08.832Z,42
2019-04-06T00:01:11.116Z,43
2019-04-06T00:01:13.569Z,44
2019-04-06T00:01:16.980Z,43
2019-04-06T00:01:20.673Z,44
2019-04-06T00:01:24.109Z,45
2019-04-06T00:01:26.481Z,46
2019-04-06T00:01:34.423Z,47
2019-04-06T00:01:37.798Z,46
2019-04-06T00:01:40.096Z,45
2019-04-06T00:01:46.851Z,46
2019-04-06T00:01:49.179Z,45
2019-04-06T00:01:52.642Z,44
2019-04-06T00:01:58.234Z,45
2019-04-06T00:02:00.532Z,44
2019-04-06T00:02:03.941Z,45
2019-04-06T00:02:06.343Z,44
2019-04-06T00:02:08.630Z,45
2019-04-06T00:02:11.906Z,44
2019-04-06T00:02:15.497Z,43
2019-04-06T00:02:19.927Z,42
2019-04-06T00:02:24.511Z,41
2019-04-06T00:02:27.945Z,40
2019-04-06T00:02:30.274Z,39
2019-04-06T00:02:33.797Z,40
2019-04-06T00:02:37.354Z,41
2019-04-06T00:02:40.774Z,40
2019-04-06T00:02:44.286Z,41
2019-04-06T00:02:47.588Z,40
2019-04-06T00:02:52.200Z,42
2019-04-06T00:02:54.561Z,41
2019-04-06T00:02:56.912Z,42
2019-04-06T00:03:00.267Z,41
2019-04-06T00:03:03.725Z,42
2019-04-06T00:03:07.148Z,43
2019-04-06T00:03:09.465Z,44
2019-04-06T00:03:15.168Z,43
2019-04-06T00:03:17.479Z,45
2019-04-06T00:03:20.890Z,46
2019-04-06T00:03:26.665Z,47
2019-04-06T00:03:28.964Z,46
2019-04-06T00:03:31.269Z,47
2019-04-06T00:03:33.523Z,46
2019-04-06T00:03:36.965Z,45
2019-04-06T00:03:42.732Z,46
2019-04-06T00:03:45.075Z,45
2019-04-06T00:03:47.407Z,44
2019-04-06T00:03:51.913Z,45
2019-04-06T00:03:55.453Z,46
2019-04-06T00:03:58.948Z,47
2019-04-06T00:04:02.402Z,46
2019-04-06T00:04:05.822Z,47
2019-04-06T00:04:13.750Z,48
2019-04-06T00:04:16.101Z,47
2019-04-06T00:04:18.309Z,46
2019-04-06T00:04:20.665Z,45
2019-04-06T00:04:27.357Z,46
2019-04-06T00:04:28.551Z,45
2019-04-06T00:04:31.931Z,46
2019-04-06T00:04:35.257Z,47
2019-04-06T00:04:37.561Z,46
2019-04-06T00:04:38.750Z,47
2019-04-06T00:04:41.106Z,46
2019-04-06T00:04:46.814Z,45
2019-04-06T00:04:53.821Z,44
2019-04-06T00:04:55.012Z,45
2019-04-06T00:04:57.513Z,46
2019-04-06T00:05:00.975Z,47
2019-04-06T00:05:04.437Z,46
2019-04-06T00:05:07.840Z,47
2019-04-06T00:05:13.481Z,48
2019-04-06T00:05:16.887Z,47
2019-04-06T00:05:19.136Z,48
2019-04-06T00:05:20.274Z,47
2019-04-06T00:05:21.428Z,48
2019-04-06T00:05:22.551Z,47
2019-04-06T00:05:24.772Z,46
2019-04-06T00:05:29.535Z,45
2019-04-06T00:05:32.993Z,44
2019-04-06T00:05:36.510Z,45
2019-04-06T00:05:41.159Z,46
2019-04-06T00:05:44.551Z,45
2019-04-06T00:05:46.848Z,46
2019-04-06T00:05:49.127Z,45
2019-04-06T00:05:55.036Z,44
2019-04-06T00:05:58.423Z,45
2019-04-06T00:06:00.733Z,44
2019-04-06T00:06:03.046Z,45
2019-04-06T00:06:05.403Z,46
2019-04-06T00:06:14.550Z,45
2019-04-06T00:06:16.862Z,44
2019-04-06T00:06:20.619Z,43
2019-04-06T00:06:22.954Z,42
2019-04-06T00:06:26.336Z,43
2019-04-06T00:06:34.411Z,44
2019-04-06T00:06:38.976Z,45
2019-04-06T00:06:47.854Z,44
2019-04-06T00:06:52.304Z,46
2019-04-06T00:06:55.701Z,44
2019-04-06T00:06:59.171Z,43
2019-04-06T00:07:02.524Z,44
2019-04-06T00:07:07.068Z,43
2019-04-06T00:07:09.372Z,44
2019-04-06T00:07:11.614Z,45
2019-04-06T00:07:15.032Z,46
2019-04-06T00:07:17.286Z,45
2019-04-06T00:07:25.298Z,46
2019-04-06T00:07:28.659Z,45
2019-04-06T00:07:29.843Z,44
2019-04-06T00:07:34.334Z,46
2019-04-06T00:07:36.639Z,45
2019-04-06T00:07:40.188Z,43
2019-04-06T00:07:44.756Z,42
2019-04-06T00:07:49.281Z,44
2019-04-06T00:07:54.939Z,45
2019-04-06T00:07:57.229Z,44
2019-04-06T00:07:58.443Z,45
2019-04-06T00:08:00.796Z,46
2019-04-06T00:08:01.934Z,45
2019-04-06T00:08:04.202Z,44
2019-04-06T00:08:13.187Z,43
2019-04-06T00:08:20.903Z,44
2019-04-06T00:08:28.710Z,43
2019-04-06T00:08:39.199Z,44
2019-04-06T00:08:43.946Z,45
2019-04-06T00:08:47.409Z,46
2019-04-06T00:08:50.878Z,45
2019-04-06T00:08:52.077Z,46
2019-04-06T00:08:53.145Z,45
2019-04-06T00:08:57.672Z,46
2019-04-06T00:09:01.146Z,45
2019-04-06T00:09:05.647Z,44
2019-04-06T00:09:09.030Z,43
2019-04-06T00:09:11.355Z,42
2019-04-06T00:09:12.559Z,43
2019-04-06T00:09:18.372Z,44
2019-04-06T00:09:20.681Z,45
2019-04-06T00:09:22.946Z,44
2019-04-06T00:09:26.325Z,45
2019-04-06T00:09:28.609Z,46
2019-04-06T00:09:30.992Z,45
2019-04-06T00:09:33.336Z,44
2019-04-06T00:09:34.454Z,43
2019-04-06T00:09:37.846Z,41
2019-04-06T00:09:41.364Z,43
2019-04-06T00:09:43.683Z,44
2019-04-06T00:09:46.039Z,43
2019-04-06T00:09:49.531Z,41
2019-04-06T00:09:54.041Z,40
2019-04-06T00:09:55.203Z,41
2019-04-06T00:09:59.233Z,42
2019-04-06T00:10:01.593Z,41
2019-04-06T00:10:02.695Z,42
2019-04-06T00:10:05.016Z,43
2019-04-06T00:10:08.426Z,44
2019-04-06T00:10:13.926Z,43
2019-04-06T00:10:17.247Z,44
2019-04-06T00:10:19.585Z,43
2019-04-06T00:10:22.954Z,42
2019-04-06T00:10:25.329Z,43
2019-04-06T00:10:27.705Z,42
2019-04-06T00:10:30.200Z,43
2019-04-06T00:10:35.895Z,44
2019-04-06T00:10:39.257Z,45
2019-04-06T00:10:41.570Z,46
2019-04-06T00:10:43.897Z,45
2019-04-06T00:10:46.247Z,47
2019-04-06T00:10:48.594Z,46
2019-04-06T00:10:55.066Z,44
2019-04-06T00:10:57.571Z,43
2019-04-06T00:11:01.153Z,45
2019-04-06T00:11:04.528Z,44
2019-04-06T00:11:06.883Z,43
2019-04-06T00:11:09.209Z,42
2019-04-06T00:11:16.050Z,43
2019-04-06T00:11:34.005Z,44
2019-04-06T00:11:36.381Z,43
2019-04-06T00:11:38.902Z,42
2019-04-06T00:11:41.200Z,44
2019-04-06T00:11:43.447Z,43
2019-04-06T00:11:45.642Z,44
2019-04-06T00:11:50.168Z,45
2019-04-06T00:11:52.501Z,46
2019-04-06T00:11:55.899Z,45
2019-04-06T00:12:00.505Z,44
2019-04-06T00:12:02.815Z,43
2019-04-06T00:12:06.224Z,42
2019-04-06T00:12:09.632Z,43
2019-04-06T00:12:14.192Z,44
2019-04-06T00:12:20.041Z,45
2019-04-06T00:12:24.668Z,46
2019-04-06T00:12:28.033Z,45
2019-04-06T00:12:30.310Z,46
2019-04-06T00:12:32.665Z,45
2019-04-06T00:12:33.864Z,46
2019-04-06T00:12:40.755Z,45
2019-04-06T00:12:47.688Z,46
2019-04-06T00:12:50.035Z,45
2019-04-06T00:12:54.859Z,44
2019-04-06T00:12:57.207Z,45
2019-04-06T00:13:00.712Z,44
2019-04-06T00:13:04.186Z,43
2019-04-06T00:13:07.656Z,44
2019-04-06T00:13:13.264Z,43
2019-04-06T00:13:16.738Z,42
2019-04-06T00:13:20.108Z,43
2019-04-06T00:13:22.463Z,44
2019-04-06T00:13:24.774Z,43
2019-04-06T00:13:27.073Z,44
2019-04-06T00:13:29.384Z,43
2019-04-06T00:13:30.483Z,44
2019-04-06T00:13:31.613Z,43
2019-04-06T00:13:35.074Z,42
2019-04-06T00:13:37.463Z,41
2019-04-06T00:13:39.725Z,42
2019-04-06T00:13:44.318Z,43
2019-04-06T00:13:47.715Z,44
2019-04-06T00:13:52.339Z,43
2019-04-06T00:13:56.881Z,44
2019-04-06T00:14:00.372Z,43
2019-04-06T00:14:02.856Z,44
2019-04-06T00:14:06.269Z,45
2019-04-06T00:14:10.761Z,44
2019-04-06T00:14:16.412Z,42
2019-04-06T00:14:18.708Z,43
2019-04-06T00:14:22.110Z,44
2019-04-06T00:14:25.545Z,45
2019-04-06T00:14:27.888Z,46
2019-04-06T00:14:31.281Z,45
2019-04-06T00:14:32.504Z,46
2019-04-06T00:14:33.654Z,45
2019-04-06T00:14:37.190Z,44
2019-04-06T00:14:39.427Z,46
2019-04-06T00:14:41.809Z,45
2019-04-06T00:14:44.230Z,44
2019-04-06T00:14:53.426Z,43
2019-04-06T00:14:54.612Z,44
2019-04-06T00:14:55.738Z,45
2019-04-06T00:15:01.364Z,44
2019-04-06T00:15:03.681Z,45
2019-04-06T00:15:06.626Z,44
2019-04-06T00:15:10.315Z,46
2019-04-06T00:15:14.848Z,45
2019-04-06T00:15:18.493Z,46
2019-04-06T00:15:23.026Z,47
2019-04-06T00:15:27.482Z,46
2019-04-06T00:15:32.124Z,45
2019-04-06T00:15:35.566Z,44
2019-04-06T00:15:44.779Z,45
2019-04-06T00:15:48.360Z,44
2019-04-06T00:15:50.633Z,45
2019-04-06T00:15:53.129Z,46
2019-04-06T00:15:56.579Z,45
2019-04-06T00:16:02.158Z,44
2019-04-06T00:16:05.577Z,43
2019-04-06T00:16:07.880Z,42
2019-04-06T00:16:09.064Z,43
2019-04-06T00:16:11.331Z,42
2019-04-06T00:16:14.794Z,43
2019-04-06T00:16:17.081Z,41
2019-04-06T00:16:20.683Z,42
2019-04-06T00:16:23.261Z,43
2019-04-06T00:16:28.631Z,42
2019-04-06T00:16:30.956Z,41
2019-04-06T00:16:34.600Z,42
2019-04-06T00:16:36.904Z,41
2019-04-06T00:16:39.150Z,42
2019-04-06T00:16:42.530Z,43
2019-04-06T00:16:51.588Z,44
2019-04-06T00:17:04.374Z,45
2019-04-06T00:19:26.969Z,46
2019-04-06T00:19:29.328Z,44
2019-04-06T00:19:31.664Z,45
2019-04-06T00:19:32.872Z,44
2019-04-06T00:19:40.926Z,43
2019-04-06T00:19:45.549Z,44
2019-04-06T00:20:00.411Z,43
2019-04-06T00:20:06.956Z,44
2019-04-06T00:20:11.705Z,43
2019-04-06T00:20:21.679Z,44
2019-04-06T00:20:24.101Z,45
2019-04-06T00:20:26.497Z,44
2019-04-06T00:20:32.561Z,45
2019-04-06T00:20:34.859Z,44
2019-04-06T00:20:36.024Z,45
2019-04-06T00:20:37.193Z,44
2019-04-06T00:20:39.464Z,45
2019-04-06T00:20:45.572Z,46
2019-04-06T00:20:47.977Z,45
2019-04-06T00:20:52.902Z,46
2019-04-06T00:20:57.546Z,45
2019-04-06T00:21:01.115Z,44
2019-04-06T00:21:04.709Z,45
2019-04-06T00:21:07.181Z,46
2019-04-06T00:21:10.670Z,45
2019-04-06T00:21:16.468Z,44
2019-04-06T00:21:18.889Z,43
2019-04-06T00:21:22.318Z,44
2019-04-06T00:21:25.979Z,43
2019-04-06T00:21:30.589Z,42
2019-04-06T00:21:34.233Z,43
2019-04-06T00:21:39.973Z,44
2019-04-06T00:21:46.772Z,45
2019-04-06T00:21:49.327Z,46
2019-04-06T00:21:54.143Z,47
2019-04-06T00:21:56.373Z,45
2019-04-06T00:21:58.759Z,46
2019-04-06T00:22:08.086Z,44
2019-04-06T00:22:10.480Z,43
2019-04-06T00:22:14.026Z,44
2019-04-06T00:22:16.384Z,43
2019-04-06T00:22:19.753Z,42
2019-04-06T00:22:24.306Z,43
2019-04-06T00:22:27.876Z,42
2019-04-06T00:22:32.477Z,43
2019-04-06T00:22:37.260Z,44
2019-04-06T00:22:43.578Z,43
2019-04-06T00:22:47.068Z,42
2019-04-06T00:22:49.431Z,43
2019-04-06T00:22:52.939Z,44
2019-04-06T00:22:57.810Z,45
2019-04-06T00:23:03.890Z,44
2019-04-06T00:23:06.282Z,45
2019-04-06T00:23:09.710Z,44
2019-04-06T00:23:12.067Z,43
2019-04-06T00:23:17.779Z,44
2019-04-06T00:23:21.394Z,45
2019-04-06T00:23:23.759Z,44
2019-04-06T00:23:26.087Z,45
2019-04-06T00:23:30.675Z,46
2019-04-06T00:23:32.986Z,45
2019-04-06T00:23:36.548Z,44
2019-04-06T00:23:43.547Z,43
2019-04-06T00:23:48.069Z,44
2019-04-06T00:23:50.420Z,45
2019-04-06T00:23:52.839Z,46
2019-04-06T00:23:55.140Z,45
2019-04-06T00:23:56.361Z,46
2019-04-06T00:24:01.247Z,47
2019-04-06T00:24:03.574Z,48
2019-04-06T00:24:05.995Z,47
2019-04-06T00:24:10.654Z,49
2019-04-06T00:24:13.040Z,48
2019-04-06T00:24:14.217Z,49
2019-04-06T00:24:17.664Z,48
2019-04-06T00:24:21.066Z,47
2019-04-06T00:24:22.198Z,48
2019-04-06T00:24:23.314Z,47
2019-04-06T00:24:29.022Z,46
2019-04-06T00:24:31.382Z,47
2019-04-06T00:24:33.780Z,45
2019-04-06T00:24:36.179Z,46
2019-04-06T00:24:38.527Z,45
2019-04-06T00:24:42.150Z,46
2019-04-06T00:24:44.462Z,45
2019-04-06T00:24:46.736Z,46
2019-04-06T00:24:52.777Z,45
2019-04-06T00:24:58.794Z,44
2019-04-06T00:25:02.220Z,43
2019-04-06T00:25:08.117Z,42
2019-04-06T00:25:11.690Z,43
2019-04-06T00:25:14.036Z,44
2019-04-06T00:25:18.656Z,43
2019-04-06T00:25:20.959Z,44
2019-04-06T00:25:25.726Z,45
2019-04-06T00:25:28.139Z,46
2019-04-06T00:25:45.082Z,47
2019-04-06T00:25:48.724Z,46
2019-04-06T00:25:51.155Z,47
2019-04-06T00:25:55.917Z,46
2019-04-06T00:26:09.706Z,45
2019-04-06T00:26:13.197Z,44
2019-04-06T00:26:15.512Z,45
2019-04-06T00:26:28.058Z,44
2019-04-06T00:26:31.615Z,43
2019-04-06T00:26:32.738Z,44
2019-04-06T00:26:36.384Z,46
2019-04-06T00:26:38.828Z,47
2019-04-06T00:26:41.201Z,46
2019-04-06T00:26:44.844Z,47
2019-04-06T00:26:48.310Z,46
2019-04-06T00:26:52.996Z,47
2019-04-06T00:26:56.568Z,48
2019-04-06T00:27:01.187Z,47
2019-04-06T00:27:04.703Z,46
2019-04-06T00:27:08.154Z,45
2019-04-06T00:27:10.535Z,46
2019-04-06T00:27:13.158Z,45
2019-04-06T00:27:17.678Z,44
2019-04-06T00:27:21.113Z,45
2019-04-06T00:27:25.810Z,46
2019-04-06T00:27:28.167Z,47
2019-04-06T00:27:31.742Z,46
2019-04-06T00:27:32.883Z,45
2019-04-06T00:27:36.326Z,46
2019-04-06T00:27:39.856Z,47
2019-04-06T00:27:43.447Z,48
2019-04-06T00:27:47.038Z,47
2019-04-06T00:27:50.711Z,46
2019-04-06T00:27:51.855Z,47
2019-04-06T00:27:54.132Z,46
2019-04-06T00:28:01.188Z,45
2019-04-06T00:28:03.690Z,44
2019-04-06T00:28:06.090Z,45
2019-04-06T00:28:09.571Z,44
2019-04-06T00:28:14.242Z,45
2019-04-06T00:28:16.511Z,46
2019-04-06T00:28:18.867Z,45
2019-04-06T00:28:22.357Z,44
2019-04-06T00:28:25.827Z,45
2019-04-06T00:28:31.731Z,44
2019-04-06T00:28:36.428Z,45
2019-04-06T00:28:45.536Z,44
2019-04-06T00:28:47.797Z,45
2019-04-06T00:28:51.253Z,46
2019-04-06T00:28:55.984Z,45
2019-04-06T00:29:02.793Z,46
2019-04-06T00:29:07.364Z,45
2019-04-06T00:29:11.984Z,46
2019-04-06T00:29:15.400Z,45
2019-04-06T00:29:18.829Z,43
2019-04-06T00:29:22.337Z,44
2019-04-06T00:29:27.126Z,42
2019-04-06T00:29:30.677Z,43
2019-04-06T00:29:34.110Z,42
2019-04-06T00:29:37.573Z,43
2019-04-06T00:29:42.320Z,42
2019-04-06T00:29:45.730Z,43
2019-04-06T00:29:51.440Z,44
2019-04-06T00:29:53.754Z,45
2019-04-06T00:29:57.194Z,46
2019-04-06T00:30:00.901Z,45
2019-04-06T00:30:06.714Z,43
2019-04-06T00:30:11.367Z,44
2019-04-06T00:30:13.655Z,45
2019-04-06T00:30:16.084Z,46
2019-04-06T00:30:21.856Z,45
2019-04-06T00:30:26.526Z,44
2019-04-06T00:30:28.976Z,43
2019-04-06T00:30:31.451Z,44
2019-04-06T00:30:42.012Z,43
2019-04-06T00:30:43.491Z,44
2019-04-06T00:30:45.837Z,45
2019-04-06T00:30:49.408Z,46
2019-04-06T00:30:55.344Z,45
2019-04-06T00:30:58.901Z,44
2019-04-06T00:31:05.954Z,43
2019-04-06T00:31:07.151Z,44
2019-04-06T00:31:12.071Z,45
2019-04-06T00:31:14.306Z,46
2019-04-06T00:31:15.552Z,45
2019-04-06T00:31:19.077Z,44
2019-04-06T00:31:23.779Z,43
2019-04-06T00:31:27.211Z,44
2019-04-06T00:31:28.489Z,45
2019-04-06T00:31:31.998Z,46
2019-04-06T00:31:35.462Z,45
2019-04-06T00:31:40.190Z,44
2019-04-06T00:31:43.660Z,45
2019-04-06T00:31:46.081Z,44
2019-04-06T00:31:49.526Z,45
2019-04-06T00:31:54.440Z,46
2019-04-06T00:31:56.798Z,45
2019-04-06T00:31:59.077Z,44
2019-04-06T00:32:03.840Z,43
2019-04-06T00:32:10.900Z,44
2019-04-06T00:32:15.722Z,43
2019-04-06T00:32:19.257Z,44
2019-04-06T00:32:22.761Z,45
2019-04-06T00:32:27.610Z,44
2019-04-06T00:32:31.167Z,43
2019-04-06T00:32:33.556Z,44
2019-04-06T00:32:39.568Z,45
2019-04-06T00:32:41.922Z,44
2019-04-06T00:32:44.383Z,45
2019-04-06T00:32:46.742Z,44
2019-04-06T00:32:50.299Z,43
2019-04-06T00:32:53.642Z,44
2019-04-06T00:32:58.188Z,43
2019-04-06T00:33:08.499Z,44
2019-04-06T00:33:12.133Z,46
2019-04-06T00:33:20.350Z,47
2019-04-06T00:33:22.597Z,46
2019-04-06T00:33:26.060Z,45
2019-04-06T00:33:31.784Z,46
2019-04-06T00:33:34.095Z,45
2019-04-06T00:33:36.462Z,46
2019-04-06T00:33:39.907Z,45
2019-04-06T00:33:44.631Z,46
2019-04-06T00:33:52.813Z,47
2019-04-06T00:33:55.158Z,46
2019-04-06T00:33:56.374Z,47
2019-04-06T00:34:01.057Z,46
2019-04-06T00:34:07.992Z,45
2019-04-06T00:34:11.557Z,44
2019-04-06T00:34:15.190Z,45
2019-04-06T00:34:19.862Z,46
2019-04-06T00:34:22.214Z,45
2019-04-06T00:34:24.633Z,44
2019-04-06T00:34:29.315Z,43
2019-04-06T00:34:32.828Z,44
2019-04-06T00:34:38.599Z,45
2019-04-06T00:34:42.053Z,44
2019-04-06T00:34:44.533Z,45
2019-04-06T00:34:46.864Z,44
2019-04-06T00:34:49.251Z,45
2019-04-06T00:34:50.452Z,44
2019-04-06T00:34:52.880Z,45
2019-04-06T00:34:55.243Z,44
2019-04-06T00:34:58.806Z,45
2019-04-06T00:35:01.011Z,46
2019-04-06T00:35:13.603Z,45
2019-04-06T00:35:25.225Z,44
2019-04-06T00:35:30.908Z,46
2019-04-06T00:35:33.288Z,45
2019-04-06T00:35:39.121Z,44
2019-04-06T00:35:42.987Z,45
2019-04-06T00:35:46.475Z,46
2019-04-06T00:35:50.160Z,45
2019-04-06T00:35:52.512Z,46
2019-04-06T00:35:55.889Z,47
2019-04-06T00:35:58.314Z,46
2019-04-06T00:36:00.644Z,47
2019-04-06T00:36:02.989Z,46
2019-04-06T00:36:06.578Z,45
2019-04-06T00:36:07.732Z,46
2019-04-06T00:36:13.468Z,45
2019-04-06T00:36:16.963Z,46
2019-04-06T00:36:25.984Z,45
2019-04-06T00:36:28.278Z,46
2019-04-06T00:36:30.615Z,45
2019-04-06T00:36:33.167Z,46
2019-04-06T00:36:35.618Z,45
2019-04-06T00:36:39.076Z,44
2019-04-06T00:36:43.661Z,43
2019-04-06T00:36:47.095Z,42
2019-04-06T00:36:56.514Z,43
2019-04-06T00:37:02.542Z,42
2019-04-06T00:37:04.852Z,41
2019-04-06T00:37:08.563Z,42
2019-04-06T00:37:13.085Z,41
2019-04-06T00:37:15.526Z,42
2019-04-06T00:37:17.977Z,43
2019-04-06T00:37:20.383Z,42
2019-04-06T00:37:23.945Z,41
2019-04-06T00:37:26.262Z,42
2019-04-06T00:37:28.657Z,43
2019-04-06T00:37:30.981Z,44
2019-04-06T00:37:33.576Z,43
2019-04-06T00:37:35.918Z,44
2019-04-06T00:37:39.461Z,46
2019-04-06T00:37:41.801Z,45
2019-04-06T00:37:46.483Z,46
2019-04-06T00:37:48.820Z,45
2019-04-06T00:37:51.125Z,44
2019-04-06T00:37:53.498Z,43
2019-04-06T00:37:56.979Z,44
2019-04-06T00:38:00.380Z,43
2019-04-06T00:38:05.310Z,42
2019-04-06T00:38:07.679Z,43
2019-04-06T00:38:11.253Z,44
2019-04-06T00:38:14.678Z,45
2019-04-06T00:38:18.314Z,46
2019-04-06T00:38:21.888Z,45
2019-04-06T00:38:25.409Z,46
2019-04-06T00:38:28.744Z,45
2019-04-06T00:38:33.837Z,44
2019-04-06T00:38:36.350Z,43
2019-04-06T00:38:39.752Z,44
2019-04-06T00:38:43.275Z,43
2019-04-06T00:38:49.090Z,44
2019-04-06T00:38:54.854Z,43
2019-04-06T00:38:59.396Z,44
2019-04-06T00:39:02.903Z,43
2019-04-06T00:39:06.510Z,44
2019-04-06T00:39:11.214Z,43
2019-04-06T00:39:15.780Z,42
2019-04-06T00:39:21.687Z,41
2019-04-06T00:39:23.998Z,42
2019-04-06T00:39:30.889Z,41
2019-04-06T00:39:33.175Z,40
2019-04-06T00:39:35.563Z,39
2019-04-06T00:39:37.924Z,40
2019-04-06T00:39:41.367Z,41
2019-04-06T00:39:45.022Z,42
2019-04-06T00:39:47.389Z,41
2019-04-06T00:39:50.859Z,40
2019-04-06T00:39:54.428Z,42
2019-04-06T00:39:57.984Z,43
2019-04-06T00:40:04.955Z,44
2019-04-06T00:40:09.460Z,42
2019-04-06T00:40:14.167Z,41
2019-04-06T00:40:18.981Z,42
2019-04-06T00:40:21.274Z,41
2019-04-06T00:40:24.847Z,40
2019-04-06T00:40:29.444Z,41
2019-04-06T00:40:34.218Z,39
2019-04-06T00:40:36.628Z,41
2019-04-06T00:40:40.112Z,42
2019-04-06T00:40:44.679Z,41
2019-04-06T00:40:48.213Z,42
2019-04-06T00:40:51.748Z,43
2019-04-06T00:40:54.238Z,42
2019-04-06T00:40:59.134Z,43
2019-04-06T00:41:01.463Z,42
2019-04-06T00:41:04.825Z,41
2019-04-06T00:41:09.432Z,42
2019-04-06T00:41:14.085Z,43
2019-04-06T00:41:17.716Z,42
2019-04-06T00:41:21.384Z,43
2019-04-06T00:41:24.932Z,42
2019-04-06T00:41:28.537Z,43
2019-04-06T00:41:29.801Z,42
2019-04-06T00:41:33.620Z,43
2019-04-06T00:41:35.966Z,42
2019-04-06T00:41:39.530Z,41
2019-04-06T00:41:43.020Z,42
2019-04-06T00:41:46.452Z,41
2019-04-06T00:41:47.556Z,42
2019-04-06T00:41:51.031Z,43
2019-04-06T00:41:56.835Z,44
2019-04-06T00:42:00.357Z,45
2019-04-06T00:42:03.864Z,46
2019-04-06T00:42:08.463Z,45
2019-04-06T00:42:10.949Z,44
2019-04-06T00:42:13.324Z,43
2019-04-06T00:42:14.482Z,44
2019-04-06T00:42:17.080Z,43
2019-04-06T00:42:18.221Z,42
2019-04-06T00:42:20.657Z,43
2019-04-06T00:42:26.412Z,44
2019-04-06T00:42:31.112Z,43
2019-04-06T00:42:35.769Z,42
2019-04-06T00:42:38.350Z,43
2019-04-06T00:42:39.560Z,42
2019-04-06T00:42:40.678Z,43
2019-04-06T00:42:44.096Z,44
2019-04-06T00:42:46.418Z,43
2019-04-06T00:42:48.740Z,44
2019-04-06T00:43:01.815Z,43
2019-04-06T00:43:04.430Z,42
2019-04-06T00:43:12.141Z,41
2019-04-06T00:43:14.815Z,40
2019-04-06T00:43:23.571Z,41
2019-04-06T00:43:30.282Z,42
2019-04-06T00:43:35.428Z,43
2019-04-06T00:43:38.954Z,44
2019-04-06T00:43:42.362Z,43
2019-04-06T00:43:46.994Z,44
2019-04-06T00:43:49.441Z,43
2019-04-06T00:43:51.845Z,42
2019-04-06T00:43:56.583Z,44
2019-04-06T00:44:01.323Z,43
2019-04-06T00:44:02.608Z,42
2019-04-06T00:44:03.732Z,43
2019-04-06T00:44:04.882Z,42
2019-04-06T00:44:07.141Z,43
2019-04-06T00:44:09.360Z,42
2019-04-06T00:44:13.038Z,43
2019-04-06T00:44:18.046Z,44
2019-04-06T00:44:22.807Z,45
2019-04-06T00:44:25.048Z,44
2019-04-06T00:44:29.682Z,45
2019-04-06T00:44:33.163Z,44
2019-04-06T00:44:36.641Z,46
2019-04-06T00:44:40.105Z,45
2019-04-06T00:44:43.762Z,46
2019-04-06T00:44:47.289Z,44
2019-04-06T00:44:49.595Z,43
2019-04-06T00:44:53.151Z,44
2019-04-06T00:44:56.733Z,45
2019-04-06T00:44:59.107Z,44
2019-04-06T00:45:03.726Z,43
2019-04-06T00:45:07.203Z,42
2019-04-06T00:45:10.671Z,43
2019-04-06T00:45:16.589Z,42
2019-04-06T00:45:18.979Z,43
2019-04-06T00:45:21.306Z,44
2019-04-06T00:45:26.178Z,43
2019-04-06T00:45:30.819Z,44
2019-04-06T00:45:34.381Z,43
2019-04-06T00:45:37.837Z,44
2019-04-06T00:45:41.422Z,42
2019-04-06T00:45:47.129Z,43
2019-04-06T00:45:49.493Z,42
2019-04-06T00:45:53.098Z,41
2019-04-06T00:45:54.354Z,40
2019-04-06T00:45:57.867Z,41
2019-04-06T00:46:00.218Z,40
2019-04-06T00:46:02.523Z,41
2019-04-06T00:46:06.041Z,43
2019-04-06T00:46:08.450Z,42
2019-04-06T00:46:12.045Z,43
2019-04-06T00:46:13.139Z,44
2019-04-06T00:46:20.119Z,43
2019-04-06T00:46:22.598Z,44
2019-04-06T00:46:30.828Z,43
2019-04-06T00:46:33.208Z,44
2019-04-06T00:46:34.484Z,43
2019-04-06T00:46:35.643Z,44
2019-04-06T00:46:36.806Z,43
2019-04-06T00:46:41.648Z,44
2019-04-06T00:46:42.896Z,43
2019-04-06T00:46:45.263Z,44
2019-04-06T00:46:50.994Z,45
2019-04-06T00:46:54.359Z,44
2019-04-06T00:46:58.881Z,43
2019-04-06T00:47:02.411Z,44
2019-04-06T00:47:07.105Z,43
2019-04-06T00:47:11.633Z,42
2019-04-06T00:47:13.969Z,41
2019-04-06T00:47:16.473Z,42
2019-04-06T00:47:18.866Z,41
2019-04-06T00:47:22.458Z,40
2019-04-06T00:47:25.036Z,39
2019-04-06T00:47:27.478Z,40
2019-04-06T00:47:31.072Z,42
2019-04-06T00:47:34.713Z,41
2019-04-06T00:47:37.131Z,42
2019-04-06T00:47:41.958Z,41
2019-04-06T00:47:43.198Z,40
2019-04-06T00:47:47.861Z,39
2019-04-06T00:47:50.248Z,40
2019-04-06T00:47:53.710Z,41
2019-04-06T00:47:58.303Z,42
2019-04-06T00:48:03.013Z,43
2019-04-06T00:48:05.487Z,42
2019-04-06T00:48:11.248Z,43
2019-04-06T00:48:13.469Z,41
2019-04-06T00:48:15.789Z,42
2019-04-06T00:48:18.330Z,43
2019-04-06T00:48:19.471Z,42
2019-04-06T00:48:21.882Z,43
2019-04-06T00:48:25.393Z,42
2019-04-06T00:48:29.875Z,43
2019-04-06T00:48:33.440Z,41
2019-04-06T00:48:35.664Z,42
2019-04-06T00:48:38.007Z,41
2019-04-06T00:48:40.313Z,42
2019-04-06T00:48:42.606Z,41
2019-04-06T00:48:44.993Z,40
2019-04-06T00:48:47.382Z,41
2019-04-06T00:48:49.761Z,40
2019-04-06T00:48:53.227Z,39
2019-04-06T00:48:59.161Z,40
2019-04-06T00:49:01.484Z,41
2019-04-06T00:49:03.806Z,42
2019-04-06T00:49:06.132Z,43
2019-04-06T00:49:10.776Z,42
2019-04-06T00:49:13.147Z,43
2019-04-06T00:49:16.755Z,42
2019-04-06T00:49:20.330Z,40
2019-04-06T00:49:23.852Z,41
2019-04-06T00:49:26.138Z,43
2019-04-06T00:49:29.619Z,42
2019-04-06T00:49:31.960Z,41
2019-04-06T00:49:38.907Z,40
2019-04-06T00:49:42.522Z,41
2019-04-06T00:49:45.938Z,40
2019-04-06T00:49:49.444Z,41
2019-04-06T00:49:52.909Z,42
2019-04-06T00:49:57.576Z,41
2019-04-06T00:50:02.315Z,42
2019-04-06T00:50:07.282Z,41
2019-04-06T00:50:10.773Z,42
2019-04-06T00:50:13.226Z,43
2019-04-06T00:50:17.805Z,42
2019-04-06T00:50:21.362Z,43
2019-04-06T00:50:23.765Z,44
2019-04-06T00:50:27.334Z,43
2019-04-06T00:50:32.053Z,44
2019-04-06T00:50:36.749Z,43
2019-04-06T00:50:40.198Z,44
2019-04-06T00:50:43.644Z,43
2019-04-06T00:50:47.163Z,42
2019-04-06T00:50:49.592Z,41
2019-04-06T00:50:54.283Z,40
2019-04-06T00:50:58.883Z,41
2019-04-06T00:51:01.234Z,40
2019-04-06T00:51:04.723Z,41
2019-04-06T00:51:07.088Z,42
2019-04-06T00:51:09.817Z,43
2019-04-06T00:51:13.354Z,44
2019-04-06T00:51:18.007Z,43
2019-04-06T00:51:24.638Z,42
2019-04-06T00:51:25.797Z,43
2019-04-06T00:51:26.942Z,42
2019-04-06T00:51:28.188Z,43
2019-04-06T00:51:31.624Z,42
2019-04-06T00:51:35.017Z,41
2019-04-06T00:51:38.401Z,42
2019-04-06T00:51:42.161Z,41
2019-04-06T00:51:46.820Z,40
2019-04-06T00:51:51.392Z,41
2019-04-06T00:52:08.387Z,42
2019-04-06T00:52:13.101Z,43
2019-04-06T00:52:14.841Z,44
2019-04-06T00:52:21.112Z,43
2019-04-06T00:52:22.623Z,44
2019-04-06T00:52:25.199Z,43
2019-04-06T00:52:34.176Z,42
2019-04-06T00:52:36.733Z,41
2019-04-06T00:52:41.807Z,40
2019-04-06T00:52:45.280Z,41
2019-04-06T00:52:51.131Z,42
2019-04-06T00:52:55.705Z,43
2019-04-06T00:52:58.175Z,42
2019-04-06T00:53:00.757Z,43
2019-04-06T00:53:03.347Z,44
2019-04-06T00:53:05.709Z,43
2019-04-06T00:53:09.138Z,42
2019-04-06T00:53:12.354Z,41
2019-04-06T00:53:14.907Z,42
2019-04-06T00:53:20.058Z,41
2019-04-06T00:53:23.939Z,40
2019-04-06T00:53:26.259Z,39
2019-04-06T00:53:29.836Z,40
2019-04-06T00:53:32.141Z,41
2019-04-06T00:53:34.457Z,42
2019-04-06T00:53:41.460Z,43
2019-04-06T00:53:43.832Z,45
2019-04-06T00:53:46.220Z,44
2019-04-06T00:53:48.521Z,43
2019-04-06T00:53:52.393Z,42
2019-04-06T00:53:54.779Z,41
2019-04-06T00:53:57.140Z,40
2019-04-06T00:53:59.614Z,39
2019-04-06T00:54:01.977Z,38
2019-04-06T00:54:04.294Z,39
2019-04-06T00:54:08.950Z,40
2019-04-06T00:54:11.317Z,39
2019-04-06T00:54:12.578Z,40
2019-04-06T00:54:17.330Z,42